createdAt,value
2023-02-19T00:01:31.914Z,10.09
2023-02-19T00:04:01.636Z,10.05
2023-02-19T00:06:30.751Z,10.04
2023-02-19T00:08:58.316Z,10.00
2023-02-19T00:11:28.353Z,9.97
2023-02-19T00:13:57.652Z,9.91
2023-02-19T00:16:30.618Z,9.92
2023-02-19T00:18:58.955Z,9.88
2023-02-19T00:21:26.526Z,9.80
2023-02-19T00:23:56.141Z,9.79
2023-02-19T00:26:23.147Z,9.80
2023-02-19T00:28:51.766Z,9.80
2023-02-19T00:31:18.853Z,9.83
2023-02-19T00:33:47.252Z,9.76
2023-02-19T00:36:15.770Z,9.79
2023-02-19T00:38:43.812Z,9.86
2023-02-19T00:41:21.054Z,9.87
2023-02-19T00:43:54.886Z,9.86
2023-02-19T00:46:35.151Z,9.81
2023-02-19T00:49:03.502Z,9.77
2023-02-19T00:51:33.360Z,9.67
2023-02-19T00:54:00.581Z,9.68
2023-02-19T00:56:28.022Z,9.65
2023-02-19T00:58:55.322Z,9.63
2023-02-19T01:01:22.596Z,9.66
2023-02-19T01:03:51.273Z,9.60
2023-02-19T01:06:19.711Z,9.59
2023-02-19T01:08:46.772Z,9.62
2023-02-19T01:11:14.315Z,9.63
2023-02-19T01:13:42.207Z,9.59
2023-02-19T01:16:18.921Z,9.55
2023-02-19T01:18:46.577Z,9.51
2023-02-19T01:21:17.210Z,9.58
2023-02-19T01:23:44.669Z,9.55
2023-02-19T01:26:14.422Z,9.55
2023-02-19T01:28:41.695Z,9.48
2023-02-19T01:31:13.721Z,9.49
2023-02-19T01:33:46.024Z,9.39
2023-02-19T01:36:13.378Z,9.45
2023-02-19T01:38:40.785Z,9.43
2023-02-19T01:41:12.380Z,9.40
2023-02-19T01:44:04.081Z,9.41
2023-02-19T01:46:33.010Z,9.37
2023-02-19T01:49:06.429Z,9.24
2023-02-19T01:51:36.351Z,9.18
2023-02-19T01:54:06.255Z,9.19
2023-02-19T01:56:36.566Z,9.22
2023-02-19T01:59:03.641Z,9.21
2023-02-19T02:01:30.511Z,9.39
2023-02-19T02:03:57.763Z,9.43
2023-02-19T02:06:30.841Z,9.30
2023-02-19T02:09:17.961Z,9.28
2023-02-19T02:11:49.431Z,9.20
2023-02-19T02:14:24.306Z,9.25
2023-02-19T02:17:12.332Z,9.22
2023-02-19T02:19:48.053Z,9.24
2023-02-19T02:22:33.821Z,9.22
2023-02-19T02:25:23.226Z,9.21
2023-02-19T02:28:11.113Z,9.21
2023-02-19T02:30:47.451Z,9.35
2023-02-19T02:33:26.578Z,9.56
2023-02-19T02:36:03.638Z,9.65
2023-02-19T02:38:33.250Z,9.69
2023-02-19T02:41:00.574Z,9.68
2023-02-19T02:43:27.967Z,9.75
2023-02-19T02:46:02.896Z,9.76
2023-02-19T02:48:38.549Z,9.79
2023-02-19T02:51:43.635Z,9.83
2023-02-19T02:54:42.342Z,9.85
2023-02-19T02:57:15.103Z,9.82
2023-02-19T02:59:49.370Z,9.79
2023-02-19T03:02:26.484Z,9.79
2023-02-19T03:05:22.348Z,9.77
2023-02-19T03:08:01.018Z,9.70
2023-02-19T03:10:53.236Z,9.69
2023-02-19T03:13:45.878Z,9.71
2023-02-19T03:16:44.940Z,9.69
2023-02-19T03:19:21.850Z,9.67
2023-02-19T03:21:57.037Z,9.68
2023-02-19T03:24:48.619Z,9.67
2023-02-19T03:27:20.227Z,9.70
2023-02-19T03:29:52.208Z,9.74
2023-02-19T03:32:24.997Z,9.73
2023-02-19T03:34:59.686Z,9.71
2023-02-19T03:37:35.146Z,9.66
2023-02-19T03:40:02.315Z,9.67
2023-02-19T03:42:41.021Z,9.68
2023-02-19T03:45:14.085Z,9.62
2023-02-19T03:47:54.712Z,9.65
2023-02-19T03:50:55.917Z,9.65
2023-02-19T03:53:32.669Z,9.69
2023-02-19T03:56:27.587Z,9.57
2023-02-19T03:59:02.486Z,9.59
2023-02-19T04:01:44.817Z,9.57
2023-02-19T04:04:18.464Z,9.65
2023-02-19T04:06:52.900Z,9.58
2023-02-19T04:09:21.966Z,9.52
2023-02-19T04:11:55.481Z,9.48
2023-02-19T04:14:38.243Z,9.51
2023-02-19T04:17:17.240Z,9.50
2023-02-19T04:19:47.176Z,9.52
2023-02-19T04:22:17.020Z,9.52
2023-02-19T04:24:49.118Z,9.50
2023-02-19T04:27:16.453Z,9.49
2023-02-19T04:29:43.423Z,9.46
2023-02-19T04:32:11.876Z,9.41
2023-02-19T04:34:38.955Z,9.32
2023-02-19T04:37:06.009Z,9.34
2023-02-19T04:39:33.589Z,9.31
2023-02-19T04:42:00.580Z,9.35
2023-02-19T04:44:27.495Z,9.35
2023-02-19T04:46:54.492Z,9.29
2023-02-19T04:49:21.283Z,9.36
2023-02-19T04:51:48.224Z,9.37
2023-02-19T04:54:15.134Z,9.33
2023-02-19T04:56:42.035Z,9.36
2023-02-19T04:59:08.925Z,9.34
2023-02-19T05:01:36.106Z,9.37
2023-02-19T05:04:04.708Z,9.41
2023-02-19T05:06:31.614Z,9.32
2023-02-19T05:08:58.835Z,9.36
2023-02-19T05:11:25.773Z,9.35
2023-02-19T05:13:52.672Z,9.45
2023-02-19T05:16:19.539Z,9.41
2023-02-19T05:18:47.331Z,9.37
2023-02-19T05:21:14.819Z,9.48
2023-02-19T05:23:42.528Z,9.42
2023-02-19T05:26:18.131Z,9.47
2023-02-19T05:28:52.594Z,9.50
2023-02-19T05:31:20.212Z,9.49
2023-02-19T05:33:51.213Z,9.47
2023-02-19T05:36:20.482Z,9.42
2023-02-19T05:38:48.111Z,9.41
2023-02-19T05:41:17.617Z,9.36
2023-02-19T05:43:46.350Z,9.42
2023-02-19T05:46:16.100Z,9.35
2023-02-19T05:48:43.545Z,9.36
2023-02-19T05:51:13.339Z,9.38
2023-02-19T05:53:40.647Z,9.08
2023-02-19T05:56:26.231Z,8.87
2023-02-19T05:58:54.132Z,8.73
2023-02-19T06:01:23.051Z,8.21
2023-02-19T06:03:58.558Z,7.92
2023-02-19T06:06:27.044Z,7.76
2023-02-19T06:08:54.379Z,7.96
2023-02-19T06:11:21.937Z,7.94
2023-02-19T06:13:50.490Z,7.81
2023-02-19T06:16:18.479Z,7.83
2023-02-19T06:18:46.242Z,7.83
2023-02-19T06:21:15.044Z,7.72
2023-02-19T06:23:42.064Z,7.94
2023-02-19T06:26:18.305Z,8.05
2023-02-19T06:28:46.566Z,8.13
2023-02-19T06:31:14.466Z,8.12
2023-02-19T06:33:42.371Z,8.23
2023-02-19T06:36:13.991Z,8.30
2023-02-19T06:38:41.095Z,8.38
2023-02-19T06:41:10.097Z,8.54
2023-02-19T06:43:37.639Z,8.53
2023-02-19T06:46:07.020Z,8.34
2023-02-19T06:48:35.024Z,8.48
2023-02-19T06:51:02.019Z,8.71
2023-02-19T06:53:29.083Z,8.92
2023-02-19T06:56:01.274Z,8.83
2023-02-19T06:58:28.713Z,8.99
2023-02-19T07:00:55.784Z,9.17
2023-02-19T07:03:23.411Z,9.12
2023-02-19T07:05:50.532Z,9.35
2023-02-19T07:08:17.599Z,9.56
2023-02-19T07:10:45.593Z,9.72
2023-02-19T07:13:12.607Z,9.76
2023-02-19T07:15:39.561Z,9.79
2023-02-19T07:18:10.590Z,9.86
2023-02-19T07:20:38.038Z,10.17
2023-02-19T07:23:04.891Z,10.16
2023-02-19T07:25:32.127Z,10.16
2023-02-19T07:27:59.053Z,10.02
2023-02-19T07:30:26.042Z,10.07
2023-02-19T07:32:52.953Z,10.21
2023-02-19T07:35:19.797Z,10.12
2023-02-19T07:37:46.680Z,10.29
2023-02-19T07:40:13.611Z,10.34
2023-02-19T07:42:40.549Z,10.25
2023-02-19T07:45:07.878Z,10.17
2023-02-19T07:47:35.394Z,9.98
2023-02-19T07:50:02.328Z,9.87
2023-02-19T07:52:29.196Z,10.00
2023-02-19T07:54:56.051Z,10.14
2023-02-19T07:57:22.850Z,10.30
2023-02-19T07:59:49.819Z,10.25
2023-02-19T08:02:37.620Z,10.48
2023-02-19T08:05:06.349Z,10.59
2023-02-19T08:07:34.910Z,10.74
2023-02-19T08:10:21.779Z,10.87
2023-02-19T08:13:25.573Z,10.93
2023-02-19T08:15:57.763Z,10.91
2023-02-19T08:18:31.422Z,11.13
2023-02-19T08:20:59.895Z,11.34
2023-02-19T08:23:28.129Z,11.35
2023-02-19T08:25:58.489Z,11.33
2023-02-19T08:28:25.442Z,11.62
2023-02-19T08:30:52.858Z,11.85
2023-02-19T08:33:21.390Z,11.85
2023-02-19T08:35:48.306Z,12.06
2023-02-19T08:38:16.607Z,12.09
2023-02-19T08:40:44.159Z,12.09
2023-02-19T08:43:13.836Z,12.19
2023-02-19T08:45:43.328Z,12.45
2023-02-19T08:48:11.219Z,12.27
2023-02-19T08:50:38.922Z,12.39
2023-02-19T08:53:06.673Z,12.43
2023-02-19T08:55:34.004Z,12.56
2023-02-19T08:58:01.200Z,12.65
2023-02-19T09:00:28.197Z,12.39
2023-02-19T09:02:55.130Z,12.38
2023-02-19T09:05:22.029Z,12.35
2023-02-19T09:07:48.918Z,12.29
2023-02-19T09:10:15.794Z,12.20
2023-02-19T09:12:42.740Z,12.19
2023-02-19T09:15:09.859Z,12.15
2023-02-19T09:17:36.786Z,12.06
2023-02-19T09:20:04.419Z,12.14
2023-02-19T09:22:31.388Z,12.23
2023-02-19T09:24:58.169Z,12.18
2023-02-19T09:27:25.043Z,12.07
2023-02-19T09:29:51.951Z,12.12
2023-02-19T09:32:19.353Z,12.18
2023-02-19T09:34:46.420Z,12.35
2023-02-19T09:37:13.303Z,12.29
2023-02-19T09:39:40.109Z,12.41
2023-02-19T09:42:15.658Z,12.46
2023-02-19T09:44:47.433Z,12.65
2023-02-19T09:47:21.106Z,12.71
2023-02-19T09:49:51.494Z,12.78
2023-02-19T09:52:23.084Z,12.84
2023-02-19T09:54:50.886Z,12.62
2023-02-19T09:57:21.565Z,12.66
2023-02-19T09:59:52.433Z,12.75
2023-02-19T10:02:22.023Z,12.87
2023-02-19T10:04:51.476Z,12.93
2023-02-19T10:07:24.192Z,12.81
2023-02-19T10:09:57.203Z,12.66
2023-02-19T10:12:30.572Z,12.60
2023-02-19T10:15:11.292Z,12.84
2023-02-19T10:17:38.309Z,12.70
2023-02-19T10:20:05.511Z,12.82
2023-02-19T10:22:35.996Z,12.86
2023-02-19T10:25:03.277Z,12.93
2023-02-19T10:27:33.542Z,13.21
2023-02-19T10:30:01.472Z,13.19
2023-02-19T10:32:29.720Z,12.96
2023-02-19T10:35:09.951Z,12.95
2023-02-19T10:37:44.596Z,13.13
2023-02-19T10:40:23.426Z,12.97
2023-02-19T10:43:34.110Z,12.95
2023-02-19T10:46:14.791Z,12.89
2023-02-19T10:48:49.957Z,12.73
2023-02-19T10:51:21.783Z,12.75
2023-02-19T10:54:04.782Z,12.74
2023-02-19T10:56:33.786Z,12.83
2023-02-19T10:59:24.584Z,12.93
2023-02-19T11:02:02.638Z,12.87
2023-02-19T11:04:35.290Z,12.84
2023-02-19T11:07:19.229Z,12.96
2023-02-19T11:09:49.869Z,13.00
2023-02-19T11:12:26.459Z,12.93
2023-02-19T11:14:53.485Z,13.09
2023-02-19T11:17:26.412Z,13.22
2023-02-19T11:20:12.958Z,13.25
2023-02-19T11:22:43.060Z,13.46
2023-02-19T11:25:16.520Z,13.49
2023-02-19T11:28:07.268Z,13.37
2023-02-19T11:30:36.536Z,13.46
2023-02-19T11:33:27.576Z,13.57
2023-02-19T11:36:01.143Z,13.43
2023-02-19T11:38:28.558Z,13.44
2023-02-19T11:41:11.376Z,13.52
2023-02-19T11:43:56.070Z,13.60
2023-02-19T11:46:44.484Z,13.62
2023-02-19T11:49:41.793Z,13.61
2023-02-19T11:52:26.179Z,13.61
2023-02-19T11:55:21.806Z,13.73
2023-02-19T11:58:10.254Z,13.72
2023-02-19T12:00:57.792Z,13.69
2023-02-19T12:03:43.290Z,13.67
2023-02-19T12:06:17.479Z,13.73
2023-02-19T12:09:43.077Z,13.77
2023-02-19T12:12:36.796Z,13.77
2023-02-19T12:15:27.785Z,13.79
2023-02-19T12:18:12.049Z,13.81
2023-02-19T12:20:53.929Z,13.74
2023-02-19T12:23:29.341Z,13.64
2023-02-19T12:26:18.479Z,13.90
2023-02-19T12:29:06.895Z,14.08
2023-02-19T12:32:00.533Z,14.00
2023-02-19T12:34:48.633Z,14.18
2023-02-19T12:37:27.291Z,14.30
2023-02-19T12:40:26.318Z,14.18
2023-02-19T12:43:18.089Z,14.21
2023-02-19T12:45:52.534Z,14.23
2023-02-19T12:48:25.249Z,14.22
2023-02-19T12:51:05.611Z,14.23
2023-02-19T12:53:45.472Z,14.28
2023-02-19T12:56:21.499Z,14.40
2023-02-19T12:58:56.244Z,14.49
2023-02-19T13:01:28.627Z,14.47
2023-02-19T13:04:14.147Z,14.53
2023-02-19T13:07:07.370Z,14.50
2023-02-19T13:09:37.475Z,14.55
2023-02-19T13:12:11.556Z,14.65
2023-02-19T13:14:43.729Z,14.68
2023-02-19T13:17:43.130Z,14.85
2023-02-19T13:20:29.866Z,14.84
2023-02-19T13:23:25.001Z,15.00
2023-02-19T13:26:06.739Z,14.99
2023-02-19T13:29:00.627Z,14.97
2023-02-19T13:31:39.727Z,14.84
2023-02-19T13:34:23.002Z,14.74
2023-02-19T13:36:50.315Z,14.71
2023-02-19T13:39:20.751Z,14.88
2023-02-19T13:41:55.573Z,15.08
2023-02-19T13:44:26.721Z,15.11
2023-02-19T13:46:53.824Z,14.96
2023-02-19T13:49:23.270Z,14.88
2023-02-19T13:51:55.644Z,14.98
2023-02-19T13:54:33.611Z,15.07
2023-02-19T13:57:25.280Z,15.03
2023-02-19T13:59:57.915Z,14.97
2023-02-19T14:02:30.765Z,14.86
2023-02-19T14:05:10.979Z,14.74
2023-02-19T14:07:54.159Z,14.75
2023-02-19T14:10:58.105Z,14.73
2023-02-19T14:14:06.641Z,14.74
2023-02-19T14:16:37.988Z,14.86
2023-02-19T14:19:14.566Z,15.03
2023-02-19T14:21:43.989Z,14.91
2023-02-19T14:24:16.630Z,14.82
2023-02-19T14:26:43.694Z,14.62
2023-02-19T14:29:14.809Z,14.58
2023-02-19T14:31:46.121Z,14.71
2023-02-19T14:34:19.687Z,14.67
2023-02-19T14:36:59.103Z,14.61
2023-02-19T14:39:38.253Z,14.50
2023-02-19T14:42:09.101Z,14.51
2023-02-19T14:45:03.092Z,14.42
2023-02-19T14:47:35.117Z,14.29
2023-02-19T14:50:03.913Z,14.31
2023-02-19T14:52:41.214Z,14.27
2023-02-19T14:55:32.660Z,14.27
2023-02-19T14:58:04.955Z,14.25
2023-02-19T15:00:37.920Z,14.24
2023-02-19T15:03:06.041Z,14.18
2023-02-19T15:05:39.115Z,14.07
2023-02-19T15:08:24.304Z,14.03
2023-02-19T15:10:51.318Z,14.01
2023-02-19T15:13:25.506Z,14.02
2023-02-19T15:15:53.604Z,14.03
2023-02-19T15:18:24.075Z,13.93
2023-02-19T15:20:52.823Z,13.90
2023-02-19T15:23:25.057Z,13.90
2023-02-19T15:25:52.680Z,13.81
2023-02-19T15:28:25.357Z,13.80
2023-02-19T15:31:07.752Z,13.76
2023-02-19T15:33:35.009Z,13.76
2023-02-19T15:36:06.706Z,13.75
2023-02-19T15:38:34.209Z,13.68
2023-02-19T15:41:01.530Z,13.66
2023-02-19T15:43:28.338Z,13.62
2023-02-19T15:46:00.561Z,13.61
2023-02-19T15:48:34.380Z,13.52
2023-02-19T15:51:10.263Z,13.48
2023-02-19T15:53:45.212Z,13.37
2023-02-19T15:56:22.000Z,13.30
2023-02-19T15:58:55.949Z,13.26
2023-02-19T16:01:26.743Z,13.19
2023-02-19T16:03:55.558Z,13.12
2023-02-19T16:06:26.600Z,13.08
2023-02-19T16:09:02.534Z,13.05
2023-02-19T16:12:00.851Z,12.97
2023-02-19T16:14:33.349Z,12.92
2023-02-19T16:17:21.088Z,12.85
2023-02-19T16:19:55.533Z,12.74
2023-02-19T16:22:26.135Z,12.69
2023-02-19T16:25:05.149Z,12.66
2023-02-19T16:27:37.964Z,12.60
2023-02-19T16:30:17.845Z,12.53
2023-02-19T16:32:47.023Z,12.57
2023-02-19T16:35:41.666Z,12.45
2023-02-19T16:38:16.812Z,12.44
2023-02-19T16:40:46.655Z,12.45
2023-02-19T16:43:13.454Z,12.44
2023-02-19T16:45:45.531Z,12.39
2023-02-19T16:48:13.574Z,12.33
2023-02-19T16:50:41.688Z,12.29
2023-02-19T16:53:19.714Z,12.29
2023-02-19T16:55:46.915Z,12.27
2023-02-19T16:58:14.003Z,12.23
2023-02-19T17:00:41.145Z,12.19
2023-02-19T17:03:11.772Z,12.15
2023-02-19T17:05:40.425Z,12.14
2023-02-19T17:08:38.647Z,12.04
2023-02-19T17:11:10.298Z,11.99
2023-02-19T17:13:37.443Z,11.98
2023-02-19T17:16:04.596Z,12.00
2023-02-19T17:18:31.570Z,11.98
2023-02-19T17:21:17.736Z,11.94
2023-02-19T17:23:44.703Z,11.94
2023-02-19T17:26:32.282Z,11.90
2023-02-19T17:29:00.797Z,11.83
2023-02-19T17:31:28.426Z,11.86
2023-02-19T17:33:55.352Z,11.78
2023-02-19T17:36:30.968Z,11.80
2023-02-19T17:38:59.335Z,11.77
2023-02-19T17:41:26.703Z,11.74
2023-02-19T17:43:53.841Z,11.68
2023-02-19T17:46:24.327Z,11.66
2023-02-19T17:48:51.640Z,11.63
2023-02-19T17:51:18.610Z,11.57
2023-02-19T17:53:46.780Z,11.49
2023-02-19T17:56:28.165Z,11.55
2023-02-19T17:58:56.217Z,11.37
2023-02-19T18:01:23.875Z,11.27
2023-02-19T18:03:51.478Z,11.37
2023-02-19T18:06:18.752Z,11.28
2023-02-19T18:08:53.517Z,11.28
2023-02-19T18:11:22.367Z,11.20
2023-02-19T18:13:50.946Z,11.19
2023-02-19T18:16:18.627Z,11.21
2023-02-19T18:18:45.828Z,11.23
2023-02-19T18:21:13.915Z,11.22
2023-02-19T18:23:41.771Z,11.23
2023-02-19T18:26:10.538Z,11.17
2023-02-19T18:28:38.394Z,11.23
2023-02-19T18:31:05.698Z,11.20
2023-02-19T18:33:34.148Z,11.20
2023-02-19T18:36:01.145Z,11.16
2023-02-19T18:38:28.415Z,11.08
2023-02-19T18:40:56.803Z,11.12
2023-02-19T18:43:25.160Z,10.97
2023-02-19T18:45:52.020Z,11.02
2023-02-19T18:48:19.019Z,10.99
2023-02-19T18:50:45.967Z,11.02
2023-02-19T18:53:14.082Z,11.07
2023-02-19T18:55:41.052Z,11.20
2023-02-19T18:58:08.374Z,11.25
2023-02-19T19:00:35.474Z,11.27
2023-02-19T19:03:02.341Z,11.28
2023-02-19T19:05:29.185Z,11.40
2023-02-19T19:07:59.498Z,11.44
2023-02-19T19:10:27.043Z,11.44
2023-02-19T19:12:54.529Z,11.43
2023-02-19T19:15:22.312Z,11.37
2023-02-19T19:17:49.931Z,11.36
2023-02-19T19:20:18.975Z,11.39
2023-02-19T19:22:46.195Z,11.32
2023-02-19T19:25:13.141Z,11.27
2023-02-19T19:27:40.052Z,11.32
2023-02-19T19:30:08.134Z,11.29
2023-02-19T19:32:35.031Z,11.29
2023-02-19T19:35:01.912Z,11.24
2023-02-19T19:37:29.482Z,11.16
2023-02-19T19:39:57.262Z,11.11
2023-02-19T19:42:24.363Z,11.20
2023-02-19T19:44:51.620Z,11.12
2023-02-19T19:47:18.525Z,11.15
2023-02-19T19:49:47.367Z,11.16
2023-02-19T19:52:14.630Z,11.18
2023-02-19T19:54:43.285Z,11.14
2023-02-19T19:57:10.672Z,11.19
2023-02-19T19:59:39.596Z,11.23
2023-02-19T20:02:07.857Z,11.21
2023-02-19T20:04:34.891Z,10.99
2023-02-19T20:07:02.315Z,11.18
2023-02-19T20:09:29.446Z,11.12
2023-02-19T20:11:56.949Z,11.10
2023-02-19T20:14:25.347Z,11.08
2023-02-19T20:16:53.140Z,11.11
2023-02-19T20:19:20.577Z,11.09
2023-02-19T20:21:49.747Z,11.13
2023-02-19T20:24:19.001Z,11.09
2023-02-19T20:26:46.196Z,11.04
2023-02-19T20:29:13.295Z,11.09
2023-02-19T20:31:40.661Z,11.08
2023-02-19T20:34:07.784Z,10.99
2023-02-19T20:36:42.672Z,10.88
2023-02-19T20:39:09.644Z,10.81
2023-02-19T20:41:36.530Z,10.83
2023-02-19T20:44:03.675Z,10.79
2023-02-19T20:46:30.504Z,10.86
2023-02-19T20:48:57.475Z,10.77
2023-02-19T20:51:24.628Z,10.74
2023-02-19T20:53:51.575Z,10.74
2023-02-19T20:56:18.425Z,10.70
2023-02-19T20:58:46.008Z,10.69
2023-02-19T21:01:13.994Z,10.70
2023-02-19T21:03:40.858Z,10.78
2023-02-19T21:06:07.900Z,10.75
2023-02-19T21:08:35.671Z,10.75
2023-02-19T21:11:02.514Z,10.73
2023-02-19T21:13:30.353Z,10.73
2023-02-19T21:15:57.230Z,10.69
2023-02-19T21:18:26.651Z,10.64
2023-02-19T21:20:53.674Z,10.64
2023-02-19T21:23:20.623Z,10.58
2023-02-19T21:25:49.121Z,10.65
2023-02-19T21:28:16.186Z,10.60
2023-02-19T21:30:43.063Z,10.60
2023-02-19T21:33:11.035Z,10.57
2023-02-19T21:35:37.931Z,10.52
2023-02-19T21:38:04.857Z,10.57
2023-02-19T21:40:33.007Z,10.58
2023-02-19T21:43:00.059Z,10.62
2023-02-19T21:45:27.103Z,10.59
2023-02-19T21:47:55.164Z,10.60
2023-02-19T21:50:23.003Z,10.57
2023-02-19T21:52:50.011Z,10.53
2023-02-19T21:55:19.149Z,10.48
2023-02-19T21:57:46.061Z,10.45
2023-02-19T22:00:13.658Z,10.43
2023-02-19T22:02:42.400Z,10.43
2023-02-19T22:05:09.672Z,10.41
2023-02-19T22:07:36.532Z,10.38
2023-02-19T22:10:04.271Z,10.42
2023-02-19T22:12:31.108Z,10.43
2023-02-19T22:14:57.974Z,10.40
2023-02-19T22:17:24.850Z,10.29
2023-02-19T22:19:51.764Z,10.26
2023-02-19T22:22:18.891Z,10.26
2023-02-19T22:24:45.732Z,10.10
2023-02-19T22:27:12.610Z,10.14
2023-02-19T22:29:39.544Z,10.18
2023-02-19T22:32:06.731Z,10.19
2023-02-19T22:34:37.811Z,10.22
2023-02-19T22:37:04.729Z,10.10
2023-02-19T22:39:31.824Z,9.82
2023-02-19T22:42:02.367Z,9.61
2023-02-19T22:44:29.610Z,9.41
2023-02-19T22:46:57.089Z,9.31
2023-02-19T22:49:24.405Z,9.18
2023-02-19T22:52:03.426Z,9.15
2023-02-19T22:54:30.539Z,9.19
2023-02-19T22:56:57.569Z,9.15
2023-02-19T22:59:24.474Z,9.16
2023-02-19T23:01:52.171Z,8.98
2023-02-19T23:04:22.860Z,8.84
2023-02-19T23:06:50.536Z,8.78
2023-02-19T23:09:21.408Z,8.70
2023-02-19T23:11:48.527Z,8.63
2023-02-19T23:14:21.735Z,8.76
2023-02-19T23:16:48.678Z,8.92
2023-02-19T23:19:16.060Z,9.04
2023-02-19T23:21:44.711Z,8.91
2023-02-19T23:24:12.692Z,8.75
2023-02-19T23:26:48.171Z,8.73
2023-02-19T23:29:20.283Z,8.58
2023-02-19T23:31:47.797Z,8.49
2023-02-19T23:34:15.082Z,8.35
2023-02-19T23:36:48.522Z,8.15
2023-02-19T23:39:18.028Z,8.03
2023-02-19T23:41:50.124Z,8.03
2023-02-19T23:44:18.022Z,8.02
2023-02-19T23:46:45.474Z,7.83
2023-02-19T23:49:12.887Z,7.60
2023-02-19T23:51:39.814Z,7.49
2023-02-19T23:54:07.219Z,7.38
2023-02-19T23:56:34.717Z,7.39
2023-02-19T23:59:01.667Z,7.34
